createdAt,value
2023-04-10T00:00:11.069Z,47.62
2023-04-10T00:02:38.471Z,48.31
2023-04-10T00:05:06.859Z,48.69
2023-04-10T00:07:34.353Z,48.71
2023-04-10T00:10:01.371Z,48.63
2023-04-10T00:12:28.966Z,48.64
2023-04-10T00:14:55.867Z,49.08
2023-04-10T00:17:23.626Z,49.91
2023-04-10T00:19:50.633Z,49.64
2023-04-10T00:22:18.688Z,49.83
2023-04-10T00:24:45.694Z,50.43
2023-04-10T00:27:12.705Z,50.69
2023-04-10T00:29:39.766Z,50.50
2023-04-10T00:32:06.812Z,51.10
2023-04-10T00:34:33.766Z,51.33
2023-04-10T00:37:00.775Z,51.51
2023-04-10T00:39:27.971Z,51.60
2023-04-10T00:41:55.539Z,51.24
2023-04-10T00:44:22.593Z,51.34
2023-04-10T00:46:49.725Z,51.34
2023-04-10T00:49:18.652Z,51.65
2023-04-10T00:51:45.735Z,51.43
2023-04-10T00:54:12.924Z,51.31
2023-04-10T00:56:40.544Z,51.95
2023-04-10T00:59:07.916Z,51.85
2023-04-10T01:01:34.960Z,52.11
2023-04-10T01:04:02.363Z,51.71
2023-04-10T01:06:55.418Z,52.93
2023-04-10T01:09:40.930Z,52.40
2023-04-10T01:12:36.952Z,52.67
2023-04-10T01:15:18.730Z,52.87
2023-04-10T01:17:51.684Z,52.88
2023-04-10T01:20:18.629Z,53.06
2023-04-10T01:23:14.046Z,53.37
2023-04-10T01:25:48.849Z,53.24
2023-04-10T01:28:47.248Z,53.89
2023-04-10T01:31:21.681Z,53.78
2023-04-10T01:33:53.080Z,53.73
2023-04-10T01:36:26.541Z,53.58
2023-04-10T01:38:54.946Z,53.64
2023-04-10T01:41:24.260Z,53.98
2023-04-10T01:43:53.540Z,54.16
2023-04-10T01:46:22.033Z,54.33
2023-04-10T01:48:50.434Z,54.20
2023-04-10T01:51:18.045Z,54.53
2023-04-10T01:53:48.055Z,54.72
2023-04-10T01:56:16.705Z,54.27
2023-04-10T01:58:44.197Z,54.82
2023-04-10T02:01:22.422Z,54.63
2023-04-10T02:03:53.966Z,54.44
2023-04-10T02:06:32.184Z,54.79
2023-04-10T02:09:20.820Z,55.09
2023-04-10T02:12:07.422Z,54.65
2023-04-10T02:14:39.145Z,54.80
2023-04-10T02:17:08.657Z,54.70
2023-04-10T02:19:37.519Z,54.32
2023-04-10T02:22:06.323Z,54.65
2023-04-10T02:24:35.584Z,54.43
2023-04-10T02:27:02.802Z,54.69
2023-04-10T02:29:29.795Z,54.92
2023-04-10T02:31:56.759Z,54.88
2023-04-10T02:34:23.784Z,55.03
2023-04-10T02:36:50.820Z,55.12
2023-04-10T02:39:17.868Z,54.70
2023-04-10T02:41:45.005Z,54.79
2023-04-10T02:44:11.931Z,54.44
2023-04-10T02:46:38.963Z,54.55
2023-04-10T02:49:06.604Z,54.77
2023-04-10T02:51:37.382Z,54.51
2023-04-10T02:54:04.789Z,54.53
2023-04-10T02:56:34.858Z,54.00
2023-04-10T02:59:02.381Z,54.18
2023-04-10T03:01:29.628Z,53.98
2023-04-10T03:03:57.027Z,53.49
2023-04-10T03:06:27.460Z,53.19
2023-04-10T03:08:54.742Z,53.39
2023-04-10T03:11:21.760Z,53.22
2023-04-10T03:13:49.371Z,53.08
2023-04-10T03:16:17.666Z,52.79
2023-04-10T03:18:45.607Z,52.50
2023-04-10T03:21:12.704Z,52.33
2023-04-10T03:23:39.680Z,51.96
2023-04-10T03:26:07.045Z,51.89
2023-04-10T03:28:35.799Z,51.83
2023-04-10T03:31:04.197Z,51.26
2023-04-10T03:33:31.324Z,51.30
2023-04-10T03:35:58.431Z,50.64
2023-04-10T03:38:25.584Z,50.15
2023-04-10T03:40:54.115Z,49.65
2023-04-10T03:43:21.142Z,49.17
2023-04-10T03:45:48.297Z,48.60
2023-04-10T03:48:15.532Z,47.88
2023-04-10T03:50:42.545Z,47.79
2023-04-10T03:53:10.080Z,47.16
2023-04-10T03:55:38.824Z,46.43
2023-04-10T03:58:06.146Z,46.25
2023-04-10T04:00:33.768Z,45.42
2023-04-10T04:03:01.248Z,45.12
2023-04-10T04:05:28.489Z,44.38
2023-04-10T04:07:55.449Z,43.91
2023-04-10T04:10:22.545Z,43.74
2023-04-10T04:12:49.510Z,43.06
2023-04-10T04:15:16.668Z,42.39
2023-04-10T04:17:44.074Z,42.15
2023-04-10T04:20:11.892Z,41.13
2023-04-10T04:22:39.098Z,39.60
2023-04-10T04:25:10.992Z,35.22
2023-04-10T04:27:39.094Z,28.17
2023-04-10T04:30:07.821Z,23.01
2023-04-10T04:32:35.139Z,19.31
2023-04-10T04:35:02.183Z,16.06
2023-04-10T04:37:30.187Z,14.36
2023-04-10T04:39:57.084Z,12.72
2023-04-10T04:42:24.187Z,11.51
2023-04-10T04:44:51.222Z,10.59
2023-04-10T04:47:18.317Z,9.68
2023-04-10T04:49:45.465Z,8.60
2023-04-10T04:52:12.448Z,8.19
2023-04-10T04:54:39.640Z,7.81
2023-04-10T04:57:07.468Z,7.24
2023-04-10T04:59:34.415Z,6.86
2023-04-10T05:02:01.627Z,6.54
2023-04-10T05:04:28.955Z,6.03
2023-04-10T05:06:56.015Z,5.62
2023-04-10T05:09:22.983Z,5.46
2023-04-10T05:11:51.574Z,5.55
2023-04-10T05:14:18.609Z,5.11
2023-04-10T05:16:45.574Z,4.49
2023-04-10T05:19:12.526Z,4.28
2023-04-10T05:21:39.569Z,4.06
2023-04-10T05:24:06.751Z,4.40
2023-04-10T05:26:33.970Z,3.88
2023-04-10T05:29:01.007Z,3.87
2023-04-10T05:31:28.095Z,3.95
2023-04-10T05:33:55.124Z,3.54
2023-04-10T05:36:22.063Z,2.98
2023-04-10T05:38:49.144Z,3.48
2023-04-10T05:41:16.328Z,2.59
2023-04-10T05:43:43.338Z,2.45
2023-04-10T05:46:12.002Z,2.78
2023-04-10T05:48:39.374Z,1.86
2023-04-10T05:51:06.763Z,1.87
2023-04-10T05:53:33.832Z,1.69
2023-04-10T05:56:02.312Z,1.79
2023-04-10T05:58:29.758Z,2.00
2023-04-10T06:00:57.710Z,1.86
2023-04-10T06:03:27.590Z,2.03
2023-04-10T06:05:54.912Z,1.16
2023-04-10T06:08:23.007Z,1.55
2023-04-10T06:10:50.013Z,1.57
2023-04-10T06:13:17.323Z,1.16
2023-04-10T06:15:44.406Z,1.27
2023-04-10T06:18:11.584Z,1.62
2023-04-10T06:20:38.558Z,1.16
2023-04-10T06:23:06.094Z,0.76
2023-04-10T06:25:33.198Z,0.72
2023-04-10T06:28:00.168Z,0.82
2023-04-10T06:30:27.286Z,0.57
2023-04-10T06:32:54.374Z,0.70
2023-04-10T06:35:22.024Z,0.62
2023-04-10T06:37:49.136Z,0.44
2023-04-10T06:40:16.639Z,0.15
2023-04-10T06:42:43.733Z,0.11
2023-04-10T06:45:11.157Z,0.05
2023-04-10T06:47:38.179Z,0.26
2023-04-10T06:50:05.853Z,0.40
2023-04-10T06:52:33.077Z,0.29
2023-04-10T06:55:00.142Z,0.00
2023-04-10T06:57:27.217Z,0.00
2023-04-10T06:59:54.322Z,0.00
2023-04-10T07:02:21.577Z,0.00
2023-04-10T07:04:48.984Z,0.00
2023-04-10T07:07:22.776Z,0.00
2023-04-10T07:09:49.984Z,0.00
2023-04-10T07:12:17.530Z,0.00
2023-04-10T07:14:46.762Z,0.00
2023-04-10T07:17:14.052Z,0.00
2023-04-10T07:19:41.158Z,0.00
2023-04-10T07:22:11.105Z,0.00
2023-04-10T07:24:39.533Z,0.00
2023-04-10T07:27:06.792Z,0.00
2023-04-10T07:29:33.921Z,0.00
2023-04-10T07:32:01.034Z,0.00
2023-04-10T07:34:28.286Z,0.00
2023-04-10T07:36:55.565Z,0.00
2023-04-10T07:39:22.608Z,0.00
2023-04-10T07:41:49.632Z,0.00
2023-04-10T07:44:17.909Z,0.00
2023-04-10T07:46:44.888Z,0.00
2023-04-10T07:49:12.493Z,0.00
2023-04-10T07:51:39.514Z,0.00
2023-04-10T07:54:06.545Z,0.00
2023-04-10T07:56:33.625Z,0.00
2023-04-10T07:59:01.412Z,0.00
2023-04-10T08:01:29.179Z,0.00
2023-04-10T08:03:59.327Z,0.00
2023-04-10T08:06:26.930Z,0.00
2023-04-10T08:08:54.135Z,0.00
2023-04-10T08:11:28.447Z,0.00
2023-04-10T08:13:58.423Z,0.00
2023-04-10T08:16:26.995Z,0.00
2023-04-10T08:18:54.749Z,0.00
2023-04-10T08:21:22.616Z,0.00
2023-04-10T08:23:57.389Z,0.00
2023-04-10T08:26:25.219Z,0.00
2023-04-10T08:28:54.755Z,0.00
2023-04-10T08:31:23.672Z,0.00
2023-04-10T08:33:52.255Z,0.00
2023-04-10T08:36:20.394Z,0.00
2023-04-10T08:38:48.674Z,0.00
2023-04-10T08:41:18.102Z,0.00
2023-04-10T08:43:49.951Z,0.00
2023-04-10T08:46:17.496Z,0.00
2023-04-10T08:49:07.848Z,0.00
2023-04-10T08:51:47.950Z,0.00
2023-04-10T08:54:21.659Z,0.00
2023-04-10T08:56:51.861Z,0.00
2023-04-10T08:59:19.186Z,0.00
2023-04-10T09:01:47.638Z,0.00
2023-04-10T09:04:15.233Z,0.00
2023-04-10T09:06:42.407Z,0.00
2023-04-10T09:09:10.112Z,0.00
2023-04-10T09:11:52.270Z,0.00
2023-04-10T09:14:23.800Z,0.00
2023-04-10T09:16:52.125Z,0.00
2023-04-10T09:19:33.428Z,0.00
2023-04-10T09:22:00.920Z,0.00
2023-04-10T09:24:28.206Z,0.00
2023-04-10T09:26:55.663Z,0.00
2023-04-10T09:29:22.707Z,0.00
2023-04-10T09:31:51.214Z,0.00
2023-04-10T09:34:22.743Z,0.00
2023-04-10T09:36:57.427Z,0.00
2023-04-10T09:39:38.765Z,0.00
2023-04-10T09:42:05.753Z,0.00
2023-04-10T09:44:35.154Z,0.00
2023-04-10T09:47:14.271Z,0.00
2023-04-10T09:49:50.470Z,0.00
2023-04-10T09:52:22.548Z,0.00
2023-04-10T09:54:49.474Z,0.00
2023-04-10T09:57:20.568Z,0.00
2023-04-10T09:59:52.951Z,0.00
2023-04-10T10:02:21.981Z,0.00
2023-04-10T10:04:50.464Z,0.00
2023-04-10T10:07:19.548Z,0.00
2023-04-10T10:09:48.328Z,0.00
2023-04-10T10:12:18.134Z,0.00
2023-04-10T10:14:57.828Z,0.00
2023-04-10T10:17:30.133Z,0.00
2023-04-10T10:20:07.767Z,0.00
2023-04-10T10:22:35.864Z,0.00
2023-04-10T10:25:03.369Z,0.00
2023-04-10T10:27:34.763Z,0.00
2023-04-10T10:30:12.106Z,0.00
2023-04-10T10:32:49.388Z,0.00
2023-04-10T10:35:17.441Z,0.00
2023-04-10T10:37:46.438Z,0.00
2023-04-10T10:40:21.694Z,0.00
2023-04-10T10:43:27.768Z,0.00
2023-04-10T10:46:02.769Z,0.00
2023-04-10T10:48:30.159Z,0.00
2023-04-10T10:51:02.376Z,0.00
2023-04-10T10:53:32.380Z,0.00
2023-04-10T10:55:59.496Z,0.00
2023-04-10T10:58:48.350Z,0.00
2023-04-10T11:01:16.355Z,0.00
2023-04-10T11:03:44.996Z,0.00
2023-04-10T11:06:14.940Z,0.00
2023-04-10T11:08:55.426Z,0.00
2023-04-10T11:11:27.653Z,0.00
2023-04-10T11:13:57.551Z,0.00
2023-04-10T11:16:44.040Z,0.00
2023-04-10T11:19:16.369Z,0.00
2023-04-10T11:22:15.764Z,0.00
2023-04-10T11:24:55.075Z,0.00
2023-04-10T11:27:41.909Z,0.00
2023-04-10T11:30:28.316Z,0.00
2023-04-10T11:32:55.966Z,0.00
2023-04-10T11:35:23.157Z,0.00
2023-04-10T11:37:50.245Z,0.00
2023-04-10T11:40:17.528Z,0.00
2023-04-10T11:42:44.794Z,0.29
2023-04-10T11:45:28.602Z,0.78
2023-04-10T11:47:56.225Z,0.66
2023-04-10T11:50:23.420Z,0.12
2023-04-10T11:52:51.487Z,0.94
2023-04-10T11:55:19.374Z,1.46
2023-04-10T11:57:46.375Z,2.00
2023-04-10T12:00:24.701Z,2.73
2023-04-10T12:02:55.752Z,3.45
2023-04-10T12:05:22.927Z,4.04
2023-04-10T12:07:50.773Z,4.10
2023-04-10T12:10:17.937Z,4.92
2023-04-10T12:12:45.019Z,5.23
2023-04-10T12:15:28.615Z,5.91
2023-04-10T12:17:56.795Z,6.29
2023-04-10T12:20:26.779Z,6.92
2023-04-10T12:22:55.594Z,6.94
2023-04-10T12:25:22.572Z,7.59
2023-04-10T12:27:52.009Z,7.59
2023-04-10T12:30:19.042Z,8.00
2023-04-10T12:32:52.771Z,8.25
2023-04-10T12:35:19.825Z,8.15
2023-04-10T12:37:54.903Z,8.43
2023-04-10T12:40:21.976Z,8.65
2023-04-10T12:42:48.912Z,9.27
2023-04-10T12:45:15.817Z,9.52
2023-04-10T12:47:54.030Z,9.17
2023-04-10T12:50:21.318Z,9.31
2023-04-10T12:53:12.736Z,9.83
2023-04-10T12:55:41.966Z,9.74
2023-04-10T12:58:21.459Z,10.07
2023-04-10T13:00:49.464Z,9.85
2023-04-10T13:03:16.673Z,10.19
2023-04-10T13:05:44.928Z,10.49
2023-04-10T13:08:12.313Z,10.65
2023-04-10T13:10:40.723Z,10.61
2023-04-10T13:13:08.153Z,10.78
2023-04-10T13:15:35.708Z,10.98
2023-04-10T13:18:05.659Z,10.98
2023-04-10T13:20:36.526Z,11.25
2023-04-10T13:23:04.138Z,11.22
2023-04-10T13:25:33.912Z,11.23
2023-04-10T13:28:01.934Z,11.36
2023-04-10T13:30:29.462Z,11.26
2023-04-10T13:32:56.519Z,11.66
2023-04-10T13:35:23.696Z,12.02
2023-04-10T13:37:53.328Z,12.07
2023-04-10T13:40:21.546Z,11.81
2023-04-10T13:42:48.857Z,12.22
2023-04-10T13:45:16.578Z,12.37
2023-04-10T13:47:43.938Z,12.43
2023-04-10T13:50:11.520Z,12.68
2023-04-10T13:52:38.606Z,12.63
2023-04-10T13:55:06.693Z,12.76
2023-04-10T13:57:34.510Z,12.95
2023-04-10T14:00:01.644Z,12.91
2023-04-10T14:02:30.868Z,13.27
2023-04-10T14:04:58.306Z,13.36
2023-04-10T14:07:25.323Z,13.50
2023-04-10T14:09:52.468Z,13.24
2023-04-10T14:12:19.602Z,13.21
2023-04-10T14:14:46.556Z,13.49
2023-04-10T14:17:13.570Z,13.64
2023-04-10T14:19:42.173Z,13.72
2023-04-10T14:22:09.128Z,13.61
2023-04-10T14:24:36.055Z,13.81
2023-04-10T14:27:03.155Z,13.92
2023-04-10T14:32:00.472Z,13.77
2023-04-10T14:34:27.503Z,13.94
2023-04-10T14:36:58.823Z,14.05
2023-04-10T14:39:26.211Z,13.76
2023-04-10T14:41:53.302Z,14.38
2023-04-10T14:44:20.388Z,14.54
2023-04-10T14:46:47.661Z,14.56
2023-04-10T14:49:15.302Z,14.63
2023-04-10T14:51:46.327Z,14.95
2023-04-10T14:54:13.445Z,15.25
2023-04-10T14:56:40.506Z,15.13
2023-04-10T14:59:07.758Z,14.97
2023-04-10T15:01:38.029Z,15.10
2023-04-10T15:04:05.312Z,15.19
2023-04-10T15:06:35.233Z,15.52
2023-04-10T15:09:03.602Z,15.45
2023-04-10T15:11:30.963Z,15.34
2023-04-10T15:14:00.285Z,15.75
2023-04-10T15:16:27.454Z,15.86
2023-04-10T15:18:54.550Z,15.61
2023-04-10T15:21:21.732Z,15.85
2023-04-10T15:23:49.019Z,15.80
2023-04-10T15:26:17.119Z,15.89
2023-04-10T15:28:44.164Z,16.03
2023-04-10T15:31:11.957Z,16.15
2023-04-10T15:33:40.111Z,16.17
2023-04-10T15:36:08.479Z,16.05
2023-04-10T15:38:36.350Z,16.22
2023-04-10T15:41:12.907Z,16.33
2023-04-10T15:43:39.899Z,16.57
2023-04-10T15:46:07.106Z,16.80
2023-04-10T15:48:34.510Z,16.68
2023-04-10T15:51:07.948Z,17.06
2023-04-10T15:53:35.799Z,16.68
2023-04-10T15:56:06.629Z,17.05
2023-04-10T15:58:34.562Z,16.95
2023-04-10T16:01:01.757Z,17.44
2023-04-10T16:03:30.559Z,17.35
2023-04-10T16:05:58.611Z,17.51
2023-04-10T16:08:26.530Z,18.00
2023-04-10T16:10:53.969Z,18.05
2023-04-10T16:13:21.101Z,18.03
2023-04-10T16:15:50.616Z,18.06
2023-04-10T16:18:17.679Z,18.19
2023-04-10T16:20:45.082Z,18.22
2023-04-10T16:23:12.088Z,18.20
2023-04-10T16:25:39.605Z,18.37
2023-04-10T16:28:08.247Z,18.61
2023-04-10T16:30:36.337Z,18.46
2023-04-10T16:33:04.383Z,18.50
2023-04-10T16:35:32.081Z,18.70
2023-04-10T16:37:59.191Z,18.79
2023-04-10T16:40:32.804Z,18.59
2023-04-10T16:43:01.341Z,19.17
2023-04-10T16:45:28.373Z,18.93
2023-04-10T16:47:55.439Z,19.12
2023-04-10T16:50:22.503Z,19.32
2023-04-10T16:52:49.535Z,19.18
2023-04-10T16:55:16.568Z,19.40
2023-04-10T16:57:44.223Z,19.60
2023-04-10T17:00:11.897Z,19.77
2023-04-10T17:02:39.294Z,19.97
2023-04-10T17:05:08.657Z,19.95
2023-04-10T17:07:36.463Z,19.98
2023-04-10T17:10:03.816Z,20.18
2023-04-10T17:12:31.366Z,20.38
2023-04-10T17:14:58.439Z,20.24
2023-04-10T17:17:25.579Z,20.46
2023-04-10T17:19:52.645Z,20.41
2023-04-10T17:22:20.916Z,20.63
2023-04-10T17:24:55.830Z,20.77
2023-04-10T17:27:22.968Z,20.91
2023-04-10T17:29:50.052Z,21.09
2023-04-10T17:32:17.174Z,21.04
2023-04-10T17:34:44.775Z,21.28
2023-04-10T17:37:11.848Z,21.13
2023-04-10T17:39:38.953Z,21.20
2023-04-10T17:42:06.072Z,21.53
2023-04-10T17:44:33.262Z,21.46
2023-04-10T17:47:01.566Z,21.46
2023-04-10T17:49:29.778Z,21.65
2023-04-10T17:51:56.837Z,21.63
2023-04-10T17:54:23.848Z,21.76
2023-04-10T17:56:52.846Z,21.75
2023-04-10T17:59:19.794Z,21.70
2023-04-10T18:01:46.875Z,21.97
2023-04-10T18:04:14.561Z,22.04
2023-04-10T18:06:41.634Z,22.18
2023-04-10T18:09:08.745Z,22.27
2023-04-10T18:11:35.778Z,22.44
2023-04-10T18:14:03.009Z,22.50
2023-04-10T18:16:31.201Z,22.45
2023-04-10T18:18:58.351Z,22.79
2023-04-10T18:21:27.082Z,23.05
2023-04-10T18:23:54.844Z,23.31
2023-04-10T18:26:21.952Z,23.40
2023-04-10T18:28:49.487Z,23.77
2023-04-10T18:31:18.180Z,23.83
2023-04-10T18:33:45.659Z,24.05
2023-04-10T18:36:16.499Z,24.38
2023-04-10T18:38:44.029Z,25.43
2023-04-10T18:41:17.542Z,24.97
2023-04-10T18:43:57.381Z,25.07
2023-04-10T18:46:32.840Z,25.02
2023-04-10T18:49:01.442Z,25.39
2023-04-10T18:51:28.695Z,25.33
2023-04-10T18:53:55.982Z,25.85
2023-04-10T18:56:23.751Z,26.00
2023-04-10T18:58:50.965Z,26.47
2023-04-10T19:01:20.559Z,26.54
2023-04-10T19:03:50.806Z,26.83
2023-04-10T19:06:24.412Z,27.34
2023-04-10T19:08:51.901Z,27.34
2023-04-10T19:11:18.960Z,27.68
2023-04-10T19:13:46.599Z,27.89
2023-04-10T19:16:19.274Z,27.91
2023-04-10T19:18:49.113Z,27.93
2023-04-10T19:21:16.276Z,27.51
2023-04-10T19:23:44.278Z,27.42
2023-04-10T19:26:27.953Z,27.76
2023-04-10T19:28:55.299Z,27.66
2023-04-10T19:31:27.726Z,27.67
2023-04-10T19:33:55.131Z,27.97
2023-04-10T19:36:22.340Z,28.26
2023-04-10T19:38:51.313Z,28.58
2023-04-10T19:41:18.446Z,28.21
2023-04-10T19:43:45.529Z,28.51
2023-04-10T19:46:20.288Z,29.00
2023-04-10T19:48:49.908Z,28.67
2023-04-10T19:51:16.858Z,28.67
2023-04-10T19:53:45.498Z,29.05
2023-04-10T19:56:12.749Z,28.72
2023-04-10T19:58:41.658Z,29.04
2023-04-10T20:01:10.424Z,29.11
2023-04-10T20:03:38.698Z,29.19
2023-04-10T20:06:10.493Z,29.11
2023-04-10T20:08:37.741Z,29.58
2023-04-10T20:11:06.700Z,29.57
2023-04-10T20:13:35.006Z,29.75
2023-04-10T20:16:02.869Z,29.87
2023-04-10T20:18:32.529Z,29.88
2023-04-10T20:20:59.675Z,29.70
2023-04-10T20:23:27.074Z,29.95
2023-04-10T20:25:54.668Z,30.25
2023-04-10T20:28:22.295Z,30.14
2023-04-10T20:30:49.255Z,30.76
2023-04-10T20:33:16.422Z,30.92
2023-04-10T20:35:43.416Z,30.92
2023-04-10T20:38:10.624Z,31.02
2023-04-10T20:40:37.640Z,31.31
2023-04-10T20:43:11.126Z,31.50
2023-04-10T20:45:41.645Z,31.81
2023-04-10T20:48:12.234Z,32.04
2023-04-10T20:50:44.193Z,32.33
2023-04-10T20:53:12.904Z,32.68
2023-04-10T20:55:46.694Z,32.34
2023-04-10T20:58:14.091Z,32.52
2023-04-10T21:00:41.258Z,32.36
2023-04-10T21:03:08.413Z,32.55
2023-04-10T21:05:40.209Z,32.67
2023-04-10T21:08:07.965Z,32.55
2023-04-10T21:10:35.178Z,32.65
2023-04-10T21:13:03.411Z,32.58
2023-04-10T21:15:30.910Z,32.24
2023-04-10T21:17:58.001Z,32.08
2023-04-10T21:20:25.027Z,31.66
2023-04-10T21:22:52.007Z,31.72
2023-04-10T21:25:18.931Z,31.81
2023-04-10T21:27:45.874Z,31.60
2023-04-10T21:30:13.087Z,31.26
2023-04-10T21:32:40.022Z,31.63
2023-04-10T21:35:07.418Z,31.71
2023-04-10T21:37:34.480Z,31.55
2023-04-10T21:40:01.442Z,31.34
2023-04-10T21:42:29.955Z,31.60
2023-04-10T21:44:59.197Z,31.88
2023-04-10T21:47:26.128Z,31.86
2023-04-10T21:49:53.033Z,31.54
2023-04-10T21:52:20.148Z,31.83
2023-04-10T21:54:47.175Z,31.87
2023-04-10T21:57:14.103Z,31.83
2023-04-10T21:59:41.089Z,31.92
2023-04-10T22:02:08.159Z,31.67
2023-04-10T22:04:38.935Z,31.73
2023-04-10T22:07:12.356Z,31.80
2023-04-10T22:09:39.306Z,31.73
2023-04-10T22:12:06.416Z,31.74
2023-04-10T22:14:33.477Z,31.95
2023-04-10T22:17:00.771Z,32.43
2023-04-10T22:19:27.885Z,32.20
2023-04-10T22:21:54.918Z,32.49
2023-04-10T22:24:21.968Z,32.92
2023-04-10T22:26:48.918Z,32.77
2023-04-10T22:29:16.012Z,32.72
2023-04-10T22:31:44.090Z,33.02
2023-04-10T22:34:11.377Z,32.83
2023-04-10T22:36:38.336Z,32.94
2023-04-10T22:39:05.368Z,32.93
2023-04-10T22:41:32.862Z,32.62
2023-04-10T22:43:59.899Z,32.95
2023-04-10T22:46:26.942Z,32.86
2023-04-10T22:48:55.148Z,32.81
2023-04-10T22:51:22.549Z,32.69
2023-04-10T22:53:49.467Z,33.07
2023-04-10T22:56:16.457Z,32.96
2023-04-10T22:58:43.488Z,33.34
2023-04-10T23:01:11.874Z,33.29
2023-04-10T23:03:38.943Z,33.64
2023-04-10T23:06:06.245Z,33.63
2023-04-10T23:08:33.309Z,34.05
2023-04-10T23:11:00.317Z,34.02
2023-04-10T23:13:27.304Z,33.98
2023-04-10T23:15:55.574Z,34.29
2023-04-10T23:18:23.085Z,34.63
2023-04-10T23:20:50.985Z,34.45
2023-04-10T23:23:18.450Z,34.99
2023-04-10T23:25:45.524Z,34.61
2023-04-10T23:28:12.592Z,35.05
2023-04-10T23:30:39.833Z,35.54
2023-04-10T23:33:06.870Z,35.37
2023-04-10T23:35:34.086Z,35.74
2023-04-10T23:38:01.489Z,36.05
2023-04-10T23:40:28.463Z,35.97
2023-04-10T23:42:55.512Z,36.11
2023-04-10T23:45:22.396Z,35.98
2023-04-10T23:47:50.724Z,36.58
2023-04-10T23:50:18.258Z,36.58
2023-04-10T23:52:51.564Z,36.74
2023-04-10T23:55:18.990Z,37.17
2023-04-10T23:57:45.933Z,36.79
